createdAt,value
2023-03-24T00:00:51.698Z,8.80
2023-03-24T00:03:17.980Z,8.84
2023-03-24T00:05:44.087Z,8.81
2023-03-24T00:08:10.385Z,8.83
2023-03-24T00:10:36.295Z,8.88
2023-03-24T00:13:03.119Z,8.86
2023-03-24T00:15:29.352Z,8.87
2023-03-24T00:17:57.201Z,8.83
2023-03-24T00:20:25.444Z,8.89
2023-03-24T00:22:57.769Z,8.83
2023-03-24T00:25:33.012Z,8.89
2023-03-24T00:27:58.919Z,8.95
2023-03-24T00:30:25.726Z,8.95
2023-03-24T00:32:54.954Z,8.95
2023-03-24T00:35:21.113Z,8.93
2023-03-24T00:37:47.053Z,8.93
2023-03-24T00:40:16.099Z,9.01
2023-03-24T00:42:46.270Z,8.99
2023-03-24T00:45:17.358Z,9.04
2023-03-24T00:47:44.098Z,9.02
2023-03-24T00:50:18.012Z,8.99
2023-03-24T00:52:48.375Z,8.93
2023-03-24T00:55:15.272Z,8.99
2023-03-24T00:57:49.324Z,8.99
2023-03-24T01:00:23.097Z,9.12
2023-03-24T01:02:54.313Z,9.04
2023-03-24T01:05:27.064Z,9.09
2023-03-24T01:07:56.483Z,9.07
2023-03-24T01:10:26.203Z,9.05
2023-03-24T01:12:55.429Z,9.05
2023-03-24T01:15:23.923Z,9.12
2023-03-24T01:17:52.466Z,9.11
2023-03-24T01:20:19.216Z,9.12
2023-03-24T01:22:45.645Z,9.04
2023-03-24T01:25:18.547Z,9.02
2023-03-24T01:27:45.875Z,9.01
2023-03-24T01:30:17.994Z,9.08
2023-03-24T01:32:43.922Z,8.94
2023-03-24T01:35:10.896Z,9.01
2023-03-24T01:37:37.965Z,9.00
2023-03-24T01:40:09.242Z,9.03
2023-03-24T01:42:36.634Z,8.96
2023-03-24T01:45:43.176Z,8.99
2023-03-24T01:48:23.362Z,8.93
2023-03-24T01:50:57.673Z,8.88
2023-03-24T01:53:24.673Z,8.97
2023-03-24T01:55:51.229Z,8.90
2023-03-24T01:58:17.751Z,8.95
2023-03-24T02:00:44.533Z,8.96
2023-03-24T02:03:20.937Z,8.97
2023-03-24T02:05:50.465Z,9.06
2023-03-24T02:08:33.461Z,9.07
2023-03-24T02:11:01.294Z,9.00
2023-03-24T02:13:27.348Z,9.05
2023-03-24T02:16:15.626Z,9.09
2023-03-24T02:18:54.176Z,9.10
2023-03-24T02:21:29.078Z,9.05
2023-03-24T02:24:30.188Z,9.08
2023-03-24T02:27:30.158Z,9.15
2023-03-24T02:30:15.573Z,9.07
2023-03-24T02:32:47.480Z,9.12
2023-03-24T02:35:43.746Z,9.09
2023-03-24T02:38:31.351Z,9.05
2023-03-24T02:41:28.112Z,9.10
2023-03-24T02:44:18.328Z,9.09
2023-03-24T02:46:49.809Z,9.15
2023-03-24T02:49:36.066Z,9.13
2023-03-24T02:52:20.517Z,9.14
2023-03-24T02:54:58.345Z,9.15
2023-03-24T02:57:35.490Z,9.17
2023-03-24T03:00:09.367Z,9.14
2023-03-24T03:02:44.703Z,9.12
2023-03-24T03:05:21.868Z,9.15
2023-03-24T03:07:51.219Z,9.23
2023-03-24T03:10:23.255Z,9.34
2023-03-24T03:12:53.347Z,9.29
2023-03-24T03:15:24.179Z,9.29
2023-03-24T03:18:15.347Z,9.34
2023-03-24T03:20:49.891Z,9.31
2023-03-24T03:23:22.933Z,9.29
2023-03-24T03:25:52.832Z,9.26
2023-03-24T03:28:23.224Z,9.30
2023-03-24T03:30:58.842Z,9.27
2023-03-24T03:33:34.016Z,9.32
2023-03-24T03:36:17.554Z,9.28
2023-03-24T03:39:19.137Z,9.25
2023-03-24T03:41:45.530Z,9.21
2023-03-24T03:44:11.533Z,9.20
2023-03-24T03:46:37.803Z,9.20
2023-03-24T03:49:06.331Z,9.27
2023-03-24T03:51:33.603Z,9.30
2023-03-24T03:54:02.863Z,9.31
2023-03-24T03:56:31.693Z,9.33
2023-03-24T03:58:57.566Z,9.36
2023-03-24T04:01:26.888Z,9.32
2023-03-24T04:04:07.901Z,9.32
2023-03-24T04:06:56.694Z,9.35
2023-03-24T04:09:54.688Z,9.46
2023-03-24T04:12:35.288Z,9.41
2023-03-24T04:15:07.318Z,9.39
2023-03-24T04:17:57.374Z,9.44
2023-03-24T04:20:32.274Z,9.45
2023-03-24T04:23:08.747Z,9.36
2023-03-24T04:26:05.393Z,9.50
2023-03-24T04:28:57.363Z,9.45
2023-03-24T04:31:33.430Z,9.38
2023-03-24T04:34:04.527Z,9.51
2023-03-24T04:36:41.748Z,9.51
2023-03-24T04:39:13.286Z,9.54
2023-03-24T04:41:42.332Z,9.51
2023-03-24T04:44:10.321Z,9.46
2023-03-24T04:46:37.104Z,9.51
2023-03-24T04:49:04.308Z,9.54
2023-03-24T04:51:31.093Z,9.51
2023-03-24T04:53:56.944Z,9.52
2023-03-24T04:56:33.456Z,9.53
2023-03-24T04:58:59.291Z,9.53
2023-03-24T05:01:29.454Z,9.52
2023-03-24T05:03:59.044Z,9.53
2023-03-24T05:06:25.386Z,9.55
2023-03-24T05:08:51.965Z,9.51
2023-03-24T05:11:19.793Z,9.47
2023-03-24T05:13:46.860Z,9.48
2023-03-24T05:16:13.674Z,9.58
2023-03-24T05:18:40.071Z,9.56
2023-03-24T05:21:06.322Z,9.55
2023-03-24T05:23:32.189Z,9.61
2023-03-24T05:25:58.057Z,9.52
2023-03-24T05:28:24.015Z,9.45
2023-03-24T05:30:50.000Z,9.40
2023-03-24T05:33:16.549Z,9.35
2023-03-24T05:35:42.502Z,9.28
2023-03-24T05:38:08.390Z,9.24
2023-03-24T05:40:36.126Z,9.21
2023-03-24T05:43:02.344Z,9.23
2023-03-24T05:45:28.815Z,9.35
2023-03-24T05:47:54.980Z,9.31
2023-03-24T05:50:21.210Z,9.33
2023-03-24T05:52:46.999Z,9.23
2023-03-24T05:55:15.312Z,9.26
2023-03-24T05:57:43.221Z,9.27
2023-03-24T06:00:13.155Z,9.30
2023-03-24T06:02:39.257Z,9.28
2023-03-24T06:05:07.628Z,9.15
2023-03-24T06:07:33.583Z,9.15
2023-03-24T06:10:02.791Z,9.25
2023-03-24T06:12:30.219Z,9.20
2023-03-24T06:15:00.183Z,9.20
2023-03-24T06:17:29.530Z,9.15
2023-03-24T06:20:02.029Z,9.15
2023-03-24T06:22:29.072Z,9.09
2023-03-24T06:24:58.145Z,9.12
2023-03-24T06:27:29.308Z,9.02
2023-03-24T06:29:58.692Z,9.14
2023-03-24T06:32:25.524Z,9.41
2023-03-24T06:34:52.119Z,9.35
2023-03-24T06:37:20.386Z,9.28
2023-03-24T06:39:46.252Z,9.24
2023-03-24T06:42:12.690Z,9.18
2023-03-24T06:44:38.501Z,9.15
2023-03-24T06:47:04.917Z,9.00
2023-03-24T06:49:31.440Z,8.97
2023-03-24T06:51:57.212Z,8.88
2023-03-24T06:54:22.969Z,8.87
2023-03-24T06:56:48.820Z,8.64
2023-03-24T06:59:17.030Z,8.66
2023-03-24T07:01:42.934Z,8.45
2023-03-24T07:04:08.820Z,8.36
2023-03-24T07:06:40.324Z,8.65
2023-03-24T07:09:13.237Z,8.56
2023-03-24T07:11:39.501Z,8.53
2023-03-24T07:14:05.376Z,8.57
2023-03-24T07:16:31.303Z,8.81
2023-03-24T07:18:57.148Z,8.61
2023-03-24T07:21:23.002Z,8.64
2023-03-24T07:23:49.183Z,8.39
2023-03-24T07:26:15.675Z,8.47
2023-03-24T07:28:41.450Z,8.59
2023-03-24T07:31:10.089Z,8.43
2023-03-24T07:33:39.586Z,8.28
2023-03-24T07:36:06.858Z,8.27
2023-03-24T07:38:33.356Z,8.13
2023-03-24T07:40:59.804Z,8.08
2023-03-24T07:43:26.336Z,8.15
2023-03-24T07:45:52.196Z,8.00
2023-03-24T07:48:18.413Z,7.93
2023-03-24T07:50:44.550Z,7.88
2023-03-24T07:53:10.596Z,8.03
2023-03-24T07:55:40.176Z,8.20
2023-03-24T07:58:06.148Z,8.16
2023-03-24T08:00:32.986Z,8.29
2023-03-24T08:02:59.730Z,8.46
2023-03-24T08:05:28.988Z,8.39
2023-03-24T08:07:57.398Z,8.42
2023-03-24T08:10:30.055Z,8.46
2023-03-24T08:12:56.939Z,8.34
2023-03-24T08:15:24.048Z,8.32
2023-03-24T08:17:50.934Z,8.38
2023-03-24T08:20:20.358Z,8.44
2023-03-24T08:22:53.533Z,8.40
2023-03-24T08:25:22.212Z,8.43
2023-03-24T08:27:48.359Z,8.62
2023-03-24T08:30:17.484Z,8.52
2023-03-24T08:32:55.066Z,8.57
2023-03-24T08:35:25.343Z,8.51
2023-03-24T08:37:51.966Z,8.61
2023-03-24T08:40:23.217Z,8.71
2023-03-24T08:42:55.377Z,8.66
2023-03-24T08:45:23.339Z,8.63
2023-03-24T08:47:51.264Z,8.47
2023-03-24T08:50:20.062Z,8.92
2023-03-24T08:52:48.710Z,9.02
2023-03-24T08:55:15.964Z,9.19
2023-03-24T08:57:44.664Z,9.38
2023-03-24T09:00:14.698Z,9.36
2023-03-24T09:02:45.900Z,9.77
2023-03-24T09:05:12.766Z,10.03
2023-03-24T09:07:38.666Z,9.76
2023-03-24T09:10:08.380Z,9.46
2023-03-24T09:12:35.644Z,9.40
2023-03-24T09:15:01.915Z,9.48
2023-03-24T09:17:27.767Z,9.36
2023-03-24T09:19:53.545Z,9.50
2023-03-24T09:22:19.666Z,9.56
2023-03-24T09:24:48.305Z,9.66
2023-03-24T09:27:15.459Z,9.93
2023-03-24T09:29:42.024Z,10.08
2023-03-24T09:32:08.069Z,10.03
2023-03-24T09:34:34.029Z,10.00
2023-03-24T09:37:00.445Z,10.15
2023-03-24T09:39:27.305Z,10.05
2023-03-24T09:41:55.352Z,9.94
2023-03-24T09:44:30.042Z,9.82
2023-03-24T09:47:01.631Z,10.05
2023-03-24T09:49:29.518Z,9.95
2023-03-24T09:52:03.763Z,10.12
2023-03-24T09:54:51.910Z,10.20
2023-03-24T09:57:27.132Z,10.35
2023-03-24T09:59:53.093Z,10.29
2023-03-24T10:02:20.802Z,10.52
2023-03-24T10:04:47.214Z,11.01
2023-03-24T10:07:33.919Z,11.08
2023-03-24T10:10:00.516Z,10.42
2023-03-24T10:12:32.770Z,10.67
2023-03-24T10:15:38.470Z,11.27
2023-03-24T10:18:20.121Z,11.48
2023-03-24T10:20:54.428Z,11.85
2023-03-24T10:23:56.704Z,11.95
2023-03-24T10:26:25.493Z,12.36
2023-03-24T10:29:11.436Z,11.92
2023-03-24T10:31:38.105Z,12.95
2023-03-24T10:34:04.295Z,12.65
2023-03-24T10:36:30.778Z,12.42
2023-03-24T10:38:57.619Z,11.77
2023-03-24T10:41:28.073Z,11.12
2023-03-24T10:43:56.230Z,11.05
2023-03-24T10:46:26.181Z,11.71
2023-03-24T10:49:05.139Z,11.92
2023-03-24T10:51:34.139Z,11.98
2023-03-24T10:54:12.508Z,11.28
2023-03-24T10:56:41.242Z,11.75
2023-03-24T10:59:28.050Z,12.03
2023-03-24T11:01:59.809Z,11.76
2023-03-24T11:04:26.969Z,11.99
2023-03-24T11:07:14.025Z,12.23
2023-03-24T11:09:42.117Z,12.70
2023-03-24T11:12:28.883Z,12.97
2023-03-24T11:15:20.964Z,12.08
2023-03-24T11:17:57.246Z,11.71
2023-03-24T11:20:35.031Z,11.53
2023-03-24T11:23:16.114Z,11.78
2023-03-24T11:25:46.946Z,11.77
2023-03-24T11:28:20.837Z,11.04
2023-03-24T11:30:52.425Z,10.67
2023-03-24T11:33:43.767Z,10.93
2023-03-24T11:36:33.119Z,10.99
2023-03-24T11:39:10.197Z,10.96
2023-03-24T11:41:38.538Z,11.02
2023-03-24T11:44:17.482Z,10.95
2023-03-24T11:46:46.450Z,10.97
2023-03-24T11:49:17.495Z,11.42
2023-03-24T11:51:48.178Z,11.74
2023-03-24T11:54:17.882Z,12.15
2023-03-24T11:57:13.532Z,12.48
2023-03-24T12:00:19.382Z,12.25
2023-03-24T12:03:21.823Z,12.21
2023-03-24T12:06:01.553Z,11.79
2023-03-24T12:08:55.424Z,12.73
2023-03-24T12:11:58.885Z,14.48
2023-03-24T12:14:40.999Z,15.47
2023-03-24T12:17:15.753Z,15.80
2023-03-24T12:20:16.668Z,15.69
2023-03-24T12:22:55.458Z,14.66
2023-03-24T12:25:40.917Z,13.57
2023-03-24T12:28:09.745Z,12.59
2023-03-24T12:30:50.023Z,11.96
2023-03-24T12:33:28.124Z,11.68
2023-03-24T12:36:06.136Z,11.82
2023-03-24T12:38:55.034Z,12.69
2023-03-24T12:41:39.503Z,12.47
2023-03-24T12:44:18.411Z,12.73
2023-03-24T12:46:54.460Z,14.00
2023-03-24T12:49:41.811Z,15.52
2023-03-24T12:52:42.126Z,15.78
2023-03-24T12:55:18.286Z,15.52
2023-03-24T12:57:54.154Z,15.23
2023-03-24T13:01:06.894Z,14.35
2023-03-24T13:03:42.028Z,15.56
2023-03-24T13:06:17.767Z,16.68
2023-03-24T13:08:51.188Z,16.05
2023-03-24T13:11:32.237Z,15.58
2023-03-24T13:14:02.920Z,15.03
2023-03-24T13:16:32.753Z,14.42
2023-03-24T13:19:01.925Z,14.19
2023-03-24T13:21:29.032Z,14.68
2023-03-24T13:24:11.712Z,14.47
2023-03-24T13:26:55.858Z,13.82
2023-03-24T13:29:55.569Z,13.94
2023-03-24T13:32:22.332Z,14.23
2023-03-24T13:35:01.101Z,14.38
2023-03-24T13:37:58.336Z,14.74
2023-03-24T13:40:27.380Z,13.75
2023-03-24T13:43:06.354Z,13.58
2023-03-24T13:45:47.297Z,13.47
2023-03-24T13:48:13.649Z,14.80
2023-03-24T13:50:53.038Z,15.26
2023-03-24T13:53:29.904Z,15.09
2023-03-24T13:55:55.927Z,14.20
2023-03-24T13:58:26.775Z,13.22
2023-03-24T14:01:11.505Z,13.56
2023-03-24T14:03:44.458Z,13.81
2023-03-24T14:06:15.668Z,13.78
2023-03-24T14:08:43.451Z,13.47
2023-03-24T14:11:31.182Z,13.21
2023-03-24T14:14:06.760Z,13.63
2023-03-24T14:16:32.596Z,14.47
2023-03-24T14:19:10.742Z,14.61
2023-03-24T14:21:40.841Z,15.00
2023-03-24T14:24:16.686Z,14.78
2023-03-24T14:26:42.826Z,14.98
2023-03-24T14:29:47.582Z,15.03
2023-03-24T14:32:20.823Z,14.37
2023-03-24T14:34:53.966Z,14.40
2023-03-24T14:37:21.422Z,13.93
2023-03-24T14:39:49.994Z,13.91
2023-03-24T14:42:47.903Z,13.13
2023-03-24T14:45:29.181Z,13.22
2023-03-24T14:48:01.517Z,12.76
2023-03-24T14:50:28.508Z,12.66
2023-03-24T14:52:58.395Z,12.45
2023-03-24T14:55:26.302Z,12.32
2023-03-24T14:58:01.494Z,12.19
2023-03-24T15:00:33.821Z,11.85
2023-03-24T15:03:19.371Z,11.58
2023-03-24T15:05:45.415Z,11.19
2023-03-24T15:08:17.628Z,10.89
2023-03-24T15:10:52.328Z,11.07
2023-03-24T15:13:39.738Z,10.81
2023-03-24T15:16:30.466Z,11.58
2023-03-24T15:19:01.938Z,12.03
2023-03-24T15:21:35.862Z,12.08
2023-03-24T15:24:23.363Z,12.27
2023-03-24T15:26:52.664Z,11.72
2023-03-24T15:29:18.644Z,12.21
2023-03-24T15:31:44.676Z,12.32
2023-03-24T15:34:38.286Z,12.49
2023-03-24T15:37:07.166Z,12.25
2023-03-24T15:39:36.123Z,12.73
2023-03-24T15:42:06.969Z,12.94
2023-03-24T15:44:37.943Z,13.33
2023-03-24T15:47:10.403Z,13.49
2023-03-24T15:49:39.006Z,12.76
2023-03-24T15:52:23.774Z,12.76
2023-03-24T15:54:51.815Z,12.37
2023-03-24T15:57:23.016Z,12.64
2023-03-24T15:59:55.052Z,12.50
2023-03-24T16:02:33.311Z,12.69
2023-03-24T16:05:10.696Z,12.78
2023-03-24T16:07:39.947Z,11.98
2023-03-24T16:10:09.002Z,12.17
2023-03-24T16:12:36.037Z,12.34
2023-03-24T16:15:05.002Z,12.43
2023-03-24T16:17:31.686Z,11.97
2023-03-24T16:19:57.940Z,11.86
2023-03-24T16:22:23.801Z,11.67
2023-03-24T16:24:49.978Z,11.66
2023-03-24T16:27:16.424Z,11.45
2023-03-24T16:29:42.665Z,11.44
2023-03-24T16:32:09.684Z,11.38
2023-03-24T16:34:36.475Z,11.19
2023-03-24T16:37:03.714Z,10.93
2023-03-24T16:39:30.476Z,10.97
2023-03-24T16:41:56.936Z,10.90
2023-03-24T16:44:23.268Z,10.85
2023-03-24T16:46:52.925Z,10.90
2023-03-24T16:49:20.115Z,9.89
2023-03-24T16:51:46.662Z,9.30
2023-03-24T16:54:13.017Z,8.63
2023-03-24T16:56:39.533Z,8.74
2023-03-24T16:59:06.123Z,8.76
2023-03-24T17:01:40.193Z,8.63
2023-03-24T17:04:11.736Z,8.58
2023-03-24T17:06:40.922Z,8.51
2023-03-24T17:09:07.935Z,8.40
2023-03-24T17:11:40.297Z,8.18
2023-03-24T17:14:11.451Z,8.39
2023-03-24T17:16:43.074Z,8.34
2023-03-24T17:19:11.737Z,8.49
2023-03-24T17:21:46.707Z,8.16
2023-03-24T17:24:12.998Z,8.23
2023-03-24T17:26:40.619Z,8.03
2023-03-24T17:29:08.607Z,7.88
2023-03-24T17:31:34.531Z,7.83
2023-03-24T17:34:08.570Z,7.84
2023-03-24T17:36:49.191Z,7.90
2023-03-24T17:39:17.176Z,7.88
2023-03-24T17:41:43.855Z,7.77
2023-03-24T17:44:10.186Z,7.82
2023-03-24T17:46:36.361Z,7.82
2023-03-24T17:49:02.365Z,7.66
2023-03-24T17:51:28.176Z,7.67
2023-03-24T17:53:53.999Z,7.75
2023-03-24T17:56:19.779Z,7.64
2023-03-24T17:58:46.342Z,7.48
2023-03-24T18:01:14.270Z,7.40
2023-03-24T18:03:42.185Z,7.33
2023-03-24T18:06:10.431Z,7.45
2023-03-24T18:08:36.900Z,7.43
2023-03-24T18:11:07.390Z,7.51
2023-03-24T18:13:33.382Z,7.53
2023-03-24T18:16:06.643Z,7.53
2023-03-24T18:18:40.601Z,7.62
2023-03-24T18:21:06.838Z,7.67
2023-03-24T18:23:33.732Z,7.57
2023-03-24T18:26:03.622Z,7.64
2023-03-24T18:28:30.684Z,7.60
2023-03-24T18:30:56.855Z,7.39
2023-03-24T18:33:23.464Z,7.35
2023-03-24T18:35:53.180Z,7.55
2023-03-24T18:38:23.041Z,7.62
2023-03-24T18:41:04.354Z,7.54
2023-03-24T18:43:33.752Z,7.53
2023-03-24T18:45:59.786Z,7.55
2023-03-24T18:48:25.688Z,7.33
2023-03-24T18:50:52.459Z,7.16
2023-03-24T18:53:19.179Z,7.25
2023-03-24T18:55:46.883Z,7.12
2023-03-24T18:58:14.445Z,7.11
2023-03-24T19:00:42.380Z,7.25
2023-03-24T19:03:09.359Z,7.17
2023-03-24T19:05:35.634Z,7.31
2023-03-24T19:08:06.253Z,7.23
2023-03-24T19:10:36.392Z,7.33
2023-03-24T19:13:03.614Z,7.30
2023-03-24T19:15:30.192Z,7.28
2023-03-24T19:17:58.999Z,7.12
2023-03-24T19:20:26.105Z,7.27
2023-03-24T19:22:52.995Z,7.30
2023-03-24T19:25:19.197Z,7.28
2023-03-24T19:27:45.021Z,7.31
2023-03-24T19:30:11.477Z,7.29
2023-03-24T19:32:37.541Z,7.18
2023-03-24T19:35:04.530Z,7.16
2023-03-24T19:37:31.660Z,7.31
2023-03-24T19:39:58.365Z,7.29
2023-03-24T19:42:25.708Z,7.35
2023-03-24T19:44:52.593Z,7.41
2023-03-24T19:47:18.740Z,7.31
2023-03-24T19:49:44.592Z,7.27
2023-03-24T19:52:10.496Z,7.37
2023-03-24T19:54:36.365Z,7.25
2023-03-24T19:57:02.936Z,7.30
2023-03-24T19:59:29.187Z,7.38
2023-03-24T20:01:55.723Z,7.15
2023-03-24T20:04:23.377Z,7.28
2023-03-24T20:06:49.805Z,7.12
2023-03-24T20:09:15.806Z,7.10
2023-03-24T20:11:42.037Z,7.02
2023-03-24T20:14:07.971Z,6.99
2023-03-24T20:16:33.947Z,7.13
2023-03-24T20:18:59.772Z,7.19
2023-03-24T20:21:26.775Z,7.17
2023-03-24T20:23:52.730Z,7.30
2023-03-24T20:26:19.367Z,7.28
2023-03-24T20:28:46.246Z,7.31
2023-03-24T20:31:12.607Z,7.38
2023-03-24T20:33:38.585Z,7.28
2023-03-24T20:36:04.984Z,7.35
2023-03-24T20:38:31.326Z,7.40
2023-03-24T20:41:02.610Z,7.35
2023-03-24T20:43:29.121Z,7.42
2023-03-24T20:45:55.936Z,7.50
2023-03-24T20:48:23.044Z,7.52
2023-03-24T20:50:49.480Z,7.44
2023-03-24T20:53:16.207Z,7.58
2023-03-24T20:55:44.576Z,7.42
2023-03-24T20:58:10.673Z,7.56
2023-03-24T21:00:45.403Z,7.60
2023-03-24T21:03:12.420Z,7.53
2023-03-24T21:05:38.927Z,7.42
2023-03-24T21:08:04.951Z,7.34
2023-03-24T21:10:30.965Z,7.29
2023-03-24T21:12:56.779Z,7.36
2023-03-24T21:15:24.171Z,7.39
2023-03-24T21:17:50.140Z,7.25
2023-03-24T21:20:16.128Z,7.32
2023-03-24T21:23:08.136Z,7.33
2023-03-24T21:25:34.984Z,7.39
2023-03-24T21:28:00.892Z,7.30
2023-03-24T21:30:27.991Z,7.29
2023-03-24T21:32:55.503Z,7.25
2023-03-24T21:35:22.121Z,7.31
2023-03-24T21:37:48.483Z,7.24
2023-03-24T21:40:19.931Z,7.26
2023-03-24T21:42:48.878Z,7.19
2023-03-24T21:45:17.715Z,7.22
2023-03-24T21:47:45.532Z,7.16
2023-03-24T21:50:13.183Z,7.25
2023-03-24T21:52:46.478Z,7.15
2023-03-24T21:55:14.282Z,7.10
2023-03-24T21:57:42.287Z,7.01
2023-03-24T22:00:20.394Z,7.10
2023-03-24T22:02:48.997Z,6.97
2023-03-24T22:05:18.171Z,7.00
2023-03-24T22:07:46.188Z,7.02
2023-03-24T22:10:14.602Z,6.97
2023-03-24T22:12:42.468Z,7.01
2023-03-24T22:15:10.079Z,7.09
2023-03-24T22:17:36.695Z,6.89
2023-03-24T22:20:10.374Z,6.93
2023-03-24T22:22:37.292Z,6.96
2023-03-24T22:25:06.026Z,6.89
2023-03-24T22:27:32.849Z,6.90
2023-03-24T22:29:58.909Z,6.82
2023-03-24T22:32:25.687Z,6.88
2023-03-24T22:34:51.593Z,6.70
2023-03-24T22:37:17.605Z,6.83
2023-03-24T22:39:43.642Z,6.90
2023-03-24T22:42:09.645Z,6.76
2023-03-24T22:44:35.597Z,6.74
2023-03-24T22:47:02.070Z,6.77
2023-03-24T22:49:28.927Z,6.80
2023-03-24T22:51:55.334Z,6.80
2023-03-24T22:54:21.538Z,6.79
2023-03-24T22:56:47.693Z,6.71
2023-03-24T22:59:13.690Z,6.75
2023-03-24T23:01:39.767Z,6.78
2023-03-24T23:04:05.756Z,6.85
2023-03-24T23:06:36.062Z,6.82
2023-03-24T23:09:03.704Z,6.75
2023-03-24T23:11:30.202Z,6.82
2023-03-24T23:14:04.604Z,6.80
2023-03-24T23:16:37.003Z,6.86
2023-03-24T23:19:04.840Z,6.66
2023-03-24T23:21:30.755Z,6.64
2023-03-24T23:23:56.688Z,6.70
2023-03-24T23:26:26.132Z,6.68
2023-03-24T23:28:52.906Z,6.72
2023-03-24T23:31:25.175Z,6.82
2023-03-24T23:33:54.504Z,6.67
2023-03-24T23:36:21.089Z,6.57
2023-03-24T23:38:49.849Z,6.68
2023-03-24T23:41:16.358Z,6.58
2023-03-24T23:43:42.393Z,6.36
2023-03-24T23:46:08.311Z,6.46
2023-03-24T23:48:35.576Z,6.41
2023-03-24T23:51:04.201Z,6.28
2023-03-24T23:53:30.885Z,6.48
2023-03-24T23:56:06.018Z,6.49
2023-03-24T23:58:33.965Z,6.43
